Time;durP1;ratioP1;P1;durP2;ratioP2;P2;SDS_P1;SDS_P2;PMS_P1;PMS_P2;Temp;Humidity;BMP_temperature;BMP_pressure;BME280_temperature;BME280_humidity;BME280_pressure;Samples;Min_cycle;Max_cycle;Signal;HPM_P1;HPM_P2
2022/11/09 00:01:27;;;;;;;6.17;5.27;;;16.40;57.10;;;;;;5090682;28;20278;-53
2022/11/09 00:03:58;;;;;;;6.73;6.03;;;16.40;57.20;;;;;;5087949;27;20195;-54
2022/11/09 00:06:24;;;;;;;5.33;4.83;;;16.30;57.20;;;;;;5093879;28;20518;-53
2022/11/09 00:08:51;;;;;;;7.50;5.67;;;16.20;57.60;;;;;;5089492;28;20549;-53
2022/11/09 00:11:17;;;;;;;6.17;5.57;;;16.20;57.80;;;;;;5094479;28;20452;-52
2022/11/09 00:13:43;;;;;;;7.47;6.07;;;16.20;57.80;;;;;;5091741;28;20994;-50
2022/11/09 00:16:11;;;;;;;7.90;6.40;;;16.10;58.10;;;;;;5082283;28;20437;-51
2022/11/09 00:18:37;;;;;;;5.80;5.20;;;16.20;58.00;;;;;;5085873;28;20472;-52
2022/11/09 00:21:07;;;;;;;8.20;5.97;;;16.20;57.80;;;;;;5086331;28;20436;-52
2022/11/09 00:23:33;;;;;;;9.40;5.80;;;16.20;57.80;;;;;;5088681;28;20437;-51
2022/11/09 00:26:04;;;;;;;6.93;5.27;;;16.20;57.70;;;;;;5093115;28;20557;-53
2022/11/09 00:28:30;;;;;;;6.57;5.40;;;16.30;57.60;;;;;;5094613;28;20483;-49
2022/11/09 00:31:16;;;;;;;6.97;5.57;;;16.30;57.60;;;;;;5095545;28;20436;-54
2022/11/09 00:33:42;;;;;;;7.87;5.43;;;16.40;57.50;;;;;;5087367;28;20449;-51
2022/11/09 00:36:11;;;;;;;6.40;5.70;;;16.40;57.30;;;;;;5089973;28;20527;-49
2022/11/09 00:38:39;;;;;;;7.53;5.50;;;16.40;57.10;;;;;;5089168;28;20655;-52
2022/11/09 00:41:06;;;;;;;7.03;6.33;;;16.40;57.10;;;;;;5089335;28;20534;-50
2022/11/09 00:43:32;;;;;;;7.23;5.37;;;16.30;57.40;;;;;;5089308;28;20429;-54
2022/11/09 00:45:58;;;;;;;5.73;5.17;;;16.20;57.50;;;;;;5091057;28;21114;-48
2022/11/09 00:48:24;;;;;;;7.07;5.30;;;16.20;57.60;;;;;;5090927;28;20481;-54
2022/11/09 00:50:51;;;;;;;6.33;5.73;;;16.20;57.80;;;;;;5090545;28;20631;-53
2022/11/09 00:53:18;;;;;;;6.43;5.47;;;16.00;58.20;;;;;;5087490;28;20438;-49
2022/11/09 00:55:56;;;;;;;6.77;5.80;;;16.00;58.30;;;;;;5089609;28;20524;-50
2022/11/09 00:58:21;;;;;;;6.53;5.93;;;16.00;58.60;;;;;;5086993;28;20525;-50
2022/11/09 01:00:47;;;;;;;5.63;5.00;;;16.10;58.30;;;;;;5086623;28;20790;-50
2022/11/09 01:03:13;;;;;;;7.67;4.80;;;16.20;58.00;;;;;;5084693;28;20191;-50
2022/11/09 01:05:38;;;;;;;6.70;5.63;;;16.20;57.80;;;;;;5091568;28;20202;-50
2022/11/09 01:08:05;;;;;;;5.33;4.67;;;16.10;58.00;;;;;;5091279;28;20267;-51
2022/11/09 01:10:31;;;;;;;6.57;4.70;;;16.20;57.90;;;;;;5086147;28;20561;-50
2022/11/09 01:12:56;;;;;;;5.93;4.50;;;16.20;57.70;;;;;;5088792;28;20429;-52
2022/11/09 01:15:22;;;;;;;5.20;4.00;;;16.10;57.80;;;;;;5087549;28;20248;-50
2022/11/09 01:17:48;;;;;;;5.30;4.27;;;16.20;57.90;;;;;;5091274;28;20560;-53
2022/11/09 01:20:15;;;;;;;4.70;4.30;;;16.30;57.60;;;;;;5088476;28;20202;-49
2022/11/09 01:22:40;;;;;;;4.53;4.10;;;16.40;57.40;;;;;;5090459;28;20482;-54
2022/11/09 01:25:07;;;;;;;8.40;4.50;;;16.30;57.20;;;;;;5085706;28;20501;-53
2022/11/09 01:27:33;;;;;;;5.07;4.50;;;16.10;57.60;;;;;;5090377;28;20309;-53
2022/11/09 01:29:58;;;;;;;5.37;4.37;;;16.10;57.70;;;;;;5087892;28;20524;-53
2022/11/09 01:32:25;;;;;;;6.53;4.43;;;16.10;57.80;;;;;;5091102;28;20469;-54
2022/11/09 01:34:51;;;;;;;5.17;4.77;;;16.00;58.00;;;;;;5089109;28;20491;-49
2022/11/09 01:37:16;;;;;;;7.80;5.70;;;16.00;58.30;;;;;;5087428;28;20608;-54
2022/11/09 01:39:42;;;;;;;6.50;5.27;;;16.10;58.10;;;;;;5090715;28;20191;-50
2022/11/09 01:42:07;;;;;;;4.87;3.73;;;16.00;58.10;;;;;;5085525;28;20201;-52
2022/11/09 01:44:37;;;;;;;5.27;4.30;;;16.10;58.10;;;;;;5088651;28;20558;-50
2022/11/09 01:47:15;;;;;;;5.40;4.90;;;16.10;58.30;;;;;;5085871;28;20278;-53
2022/11/09 01:49:55;;;;;;;7.37;4.47;;;16.10;58.20;;;;;;5088931;28;20445;-51
2022/11/09 01:52:23;;;;;;;4.17;3.80;;;16.10;58.00;;;;;;5088095;28;20444;-50
2022/11/09 01:54:59;;;;;;;4.67;4.17;;;16.20;57.80;;;;;;5087883;28;20445;-52
2022/11/09 01:57:33;;;;;;;5.53;4.70;;;16.30;57.70;;;;;;5086445;28;20444;-53
2022/11/09 02:00:07;;;;;;;6.93;5.20;;;16.40;57.60;;;;;;5097344;28;20442;-53
2022/11/09 02:02:35;;;;;;;6.10;4.87;;;16.40;57.40;;;;;;5087454;28;21337;-51
2022/11/09 02:05:11;;;;;;;6.13;4.97;;;16.50;57.30;;;;;;5090770;28;20796;-53
2022/11/09 02:07:37;;;;;;;4.70;4.10;;;16.50;57.30;;;;;;5093670;28;20479;-49
2022/11/09 02:10:42;;;;;;;9.57;4.53;;;16.50;57.10;;;;;;5090143;28;20814;-51
2022/11/09 02:13:09;;;;;;;6.30;4.10;;;16.50;57.00;;;;;;5083230;28;20450;-50
2022/11/09 02:15:36;;;;;;;4.87;4.47;;;16.60;56.90;;;;;;5083249;28;20441;-50
2022/11/09 02:18:02;;;;;;;5.53;4.80;;;16.60;56.80;;;;;;5087655;28;20473;-53
2022/11/09 02:20:28;;;;;;;6.00;4.83;;;16.60;56.90;;;;;;5096005;28;20496;-50
2022/11/09 02:22:54;;;;;;;5.30;4.33;;;16.60;56.90;;;;;;5092247;28;20453;-53
2022/11/09 02:25:20;;;;;;;5.60;5.00;;;16.60;57.00;;;;;;5082920;28;20235;-50
2022/11/09 02:27:46;;;;;;;5.00;4.50;;;16.40;57.30;;;;;;5079440;28;20288;-49
2022/11/09 02:30:13;;;;;;;6.93;5.23;;;16.40;57.60;;;;;;5091856;28;20194;-50
2022/11/09 02:32:38;;;;;;;6.57;5.50;;;16.40;57.80;;;;;;5094654;28;20440;-50
2022/11/09 02:35:04;;;;;;;5.10;4.60;;;16.40;57.70;;;;;;5087775;28;20965;-51
2022/11/09 02:37:39;;;;;;;6.20;4.57;;;16.50;57.60;;;;;;5092504;28;20203;-50
2022/11/09 02:40:11;;;;;;;7.70;4.67;;;16.50;58.00;;;;;;5095569;28;20464;-53
2022/11/09 02:42:37;;;;;;;8.30;4.50;;;16.60;57.40;;;;;;5087089;28;20429;-51
2022/11/09 02:45:03;;;;;;;5.07;4.57;;;16.60;57.50;;;;;;5087954;28;20445;-52
2022/11/09 02:47:29;;;;;;;5.13;4.53;;;16.50;58.20;;;;;;5090242;28;20208;-49
2022/11/09 02:49:56;;;;;;;7.50;5.30;;;16.50;58.50;;;;;;5091083;28;20194;-50
2022/11/09 02:52:22;;;;;;;4.63;4.23;;;16.50;58.40;;;;;;5088979;28;20199;-52
2022/11/09 02:54:48;;;;;;;5.70;4.73;;;16.50;58.40;;;;;;5089844;28;20417;-49
2022/11/09 02:57:13;;;;;;;4.67;4.27;;;16.50;58.30;;;;;;5088541;28;21074;-50
2022/11/09 02:59:39;;;;;;;7.10;4.73;;;16.60;58.00;;;;;;5087583;28;20240;-50
2022/11/09 03:02:05;;;;;;;8.67;5.37;;;16.60;57.80;;;;;;5088836;28;20198;-50
2022/11/09 03:04:30;;;;;;;5.03;4.27;;;16.60;57.60;;;;;;5088481;28;20685;-49
2022/11/09 03:06:56;;;;;;;6.40;4.43;;;16.70;57.40;;;;;;5089298;28;20190;-49
2022/11/09 03:09:21;;;;;;;6.10;5.27;;;16.70;57.50;;;;;;5088445;28;20232;-50
2022/11/09 03:11:48;;;;;;;5.93;4.50;;;16.70;57.40;;;;;;5086230;28;20280;-50
2022/11/09 03:14:14;;;;;;;4.93;4.43;;;16.80;57.40;;;;;;5088786;28;20192;-53
2022/11/09 03:16:39;;;;;;;7.23;4.40;;;16.80;57.30;;;;;;5088886;28;20515;-49
2022/11/09 03:19:05;;;;;;;6.20;4.97;;;16.90;57.40;;;;;;5091291;28;20194;-54
2022/11/09 03:21:31;;;;;;;5.30;4.77;;;16.90;57.60;;;;;;5091408;28;20325;-54
2022/11/09 03:23:56;;;;;;;4.53;4.13;;;16.80;58.20;;;;;;5089573;28;20560;-54
2022/11/09 03:26:22;;;;;;;6.37;5.07;;;16.80;58.60;;;;;;5089966;28;20211;-54
2022/11/09 03:28:48;;;;;;;6.33;5.17;;;16.80;58.60;;;;;;5091659;28;20364;-53
2022/11/09 03:31:14;;;;;;;7.10;4.90;;;16.90;58.60;;;;;;5091230;28;20186;-54
2022/11/09 03:33:40;;;;;;;14.27;12.77;;;16.90;59.00;;;;;;5089528;28;20233;-50
2022/11/09 03:36:06;;;;;;;10.90;9.83;;;16.80;59.20;;;;;;5086776;28;20519;-53
2022/11/09 03:38:32;;;;;;;6.60;6.00;;;16.90;59.70;;;;;;5091650;28;20195;-55
2022/11/09 03:41:01;;;;;;;6.67;5.33;;;16.90;60.10;;;;;;5090583;28;20887;-54
2022/11/09 03:43:27;;;;;;;7.07;5.70;;;16.90;60.30;;;;;;5091943;28;20687;-53
2022/11/09 03:45:53;;;;;;;7.77;5.97;;;16.80;60.30;;;;;;5095224;28;20432;-54
2022/11/09 03:48:19;;;;;;;7.87;7.03;;;16.80;60.50;;;;;;5085998;28;20567;-54
2022/11/09 03:50:44;;;;;;;5.93;5.27;;;16.80;60.60;;;;;;5089895;28;20441;-53
2022/11/09 03:53:10;;;;;;;7.37;6.60;;;16.80;61.80;;;;;;5084932;28;20230;-55
2022/11/09 03:55:37;;;;;;;9.07;7.33;;;16.80;61.70;;;;;;5090312;28;20187;-52
2022/11/09 03:58:04;;;;;;;7.90;6.57;;;16.80;62.00;;;;;;5089357;28;20445;-55
2022/11/09 04:00:30;;;;;;;6.77;5.20;;;16.80;62.40;;;;;;5093563;28;20467;-53
2022/11/09 04:02:55;;;;;;;6.43;5.30;;;16.70;62.80;;;;;;5102862;28;20485;-54
2022/11/09 04:05:21;;;;;;;6.00;5.47;;;16.70;62.70;;;;;;5080435;28;21165;-52
2022/11/09 04:07:52;;;;;;;5.33;4.77;;;16.40;63.20;;;;;;5081908;28;20227;-54
2022/11/09 04:10:18;;;;;;;8.43;5.33;;;16.40;63.80;;;;;;5086296;28;20194;-51
2022/11/09 04:12:44;;;;;;;6.37;5.77;;;16.50;63.70;;;;;;5090343;28;20501;-53
2022/11/09 04:15:11;;;;;;;6.10;5.47;;;16.50;63.40;;;;;;5086608;28;20491;-53
2022/11/09 04:17:36;;;;;;;8.20;5.47;;;16.60;63.40;;;;;;5097334;28;20230;-54
2022/11/09 04:20:03;;;;;;;8.37;5.70;;;16.50;63.40;;;;;;5089104;28;20469;-54
2022/11/09 04:22:28;;;;;;;6.47;5.87;;;16.40;63.80;;;;;;5090853;28;20646;-54
2022/11/09 04:24:54;;;;;;;9.53;6.07;;;16.40;64.00;;;;;;5087406;28;20477;-54
2022/11/09 04:27:20;;;;;;;6.70;5.60;;;16.50;63.90;;;;;;5096009;28;20582;-55
2022/11/09 04:29:45;;;;;;;5.80;5.30;;;16.40;63.70;;;;;;5086754;28;20203;-53
2022/11/09 04:32:11;;;;;;;6.80;5.53;;;16.30;64.10;;;;;;5097909;28;20198;-53
2022/11/09 04:34:36;;;;;;;7.90;6.00;;;16.10;64.90;;;;;;5086422;28;20201;-54
2022/11/09 04:37:02;;;;;;;7.00;6.30;;;16.00;66.00;;;;;;5091812;28;20564;-55
2022/11/09 04:39:28;;;;;;;8.53;6.53;;;15.80;66.60;;;;;;5084655;28;20202;-53
2022/11/09 04:41:53;;;;;;;9.53;5.60;;;15.60;67.80;;;;;;5093649;28;20195;-54
2022/11/09 04:44:19;;;;;;;7.37;6.60;;;15.60;67.60;;;;;;5085097;28;20199;-54
2022/11/09 04:46:44;;;;;;;7.20;5.63;;;15.80;67.30;;;;;;5087001;28;20191;-55
2022/11/09 04:49:10;;;;;;;7.63;6.13;;;15.60;67.70;;;;;;5098049;28;20318;-54
2022/11/09 04:51:35;;;;;;;7.27;6.00;;;15.50;68.80;;;;;;5091849;28;20533;-51
2022/11/09 04:54:01;;;;;;;6.93;5.90;;;15.40;69.30;;;;;;5087165;28;20194;-54
2022/11/09 04:56:26;;;;;;;6.20;5.30;;;15.50;69.50;;;;;;5086006;28;20187;-53
2022/11/09 04:58:52;;;;;;;5.97;5.30;;;15.20;70.80;;;;;;5091994;28;20203;-54
2022/11/09 05:01:18;;;;;;;6.40;5.50;;;15.20;71.10;;;;;;5084764;28;20309;-53
2022/11/09 05:03:43;;;;;;;6.40;5.43;;;15.20;71.10;;;;;;5087122;28;20197;-54
2022/11/09 05:08:54;;;;;;;5.90;5.30;;;15.20;72.20;;;;;;5085333;28;20275;-53
2022/11/09 05:11:20;;;;;;;7.73;6.80;;;15.00;73.00;;;;;;5089146;28;20472;-55
2022/11/09 05:13:46;;;;;;;5.90;5.20;;;15.00;73.50;;;;;;5084373;28;20518;-50
2022/11/09 05:16:12;;;;;;;9.50;7.20;;;15.00;74.00;;;;;;5090124;28;20445;-53
2022/11/09 05:18:38;;;;;;;6.77;6.07;;;14.80;74.90;;;;;;5092448;28;20977;-51
2022/11/09 05:21:03;;;;;;;9.30;6.70;;;14.80;75.90;;;;;;5091048;28;20226;-52
2022/11/09 05:26:14;;;;;;;9.13;7.30;;;15.00;74.80;;;;;;5086847;28;20248;-51
2022/11/09 05:28:40;;;;;;;8.60;5.87;;;14.90;75.40;;;;;;5085007;28;20844;-54
2022/11/09 05:31:06;;;;;;;12.80;6.40;;;15.00;74.80;;;;;;5089067;28;20205;-51
2022/11/09 05:33:31;;;;;;;10.47;7.43;;;15.20;74.00;;;;;;5088780;28;20449;-53
2022/11/09 05:35:57;;;;;;;8.60;6.67;;;15.40;73.50;;;;;;5083344;28;20444;-51
2022/11/09 05:38:23;;;;;;;7.50;6.67;;;15.30;73.20;;;;;;5086151;28;20307;-53
2022/11/09 05:40:52;;;;;;;5.90;5.30;;;15.30;74.40;;;;;;5091870;28;20266;-53
2022/11/09 05:43:18;;;;;;;8.07;5.97;;;15.20;75.00;;;;;;5089608;28;20939;-54
2022/11/09 05:45:44;;;;;;;6.23;5.63;;;15.10;75.10;;;;;;5086044;28;20437;-52
2022/11/09 05:48:13;;;;;;;5.63;5.13;;;15.00;76.20;;;;;;5084574;28;20234;-51
2022/11/09 05:50:40;;;;;;;6.70;5.10;;;14.90;76.90;;;;;;5089543;28;20449;-51
2022/11/09 05:53:06;;;;;;;6.70;4.90;;;15.00;76.70;;;;;;5085345;28;20441;-50
2022/11/09 05:55:32;;;;;;;5.30;4.80;;;15.00;76.70;;;;;;5090255;28;20445;-55
2022/11/09 05:57:58;;;;;;;9.10;4.90;;;15.00;76.50;;;;;;5092191;28;20542;-50
2022/11/09 06:00:24;;;;;;;6.00;5.50;;;15.10;76.60;;;;;;5089005;28;20473;-50
2022/11/09 06:02:49;;;;;;;7.07;6.37;;;15.00;76.50;;;;;;5085666;28;20275;-54
2022/11/09 06:05:15;;;;;;;8.60;5.10;;;14.90;77.30;;;;;;5083898;28;20228;-54
2022/11/09 06:07:41;;;;;;;7.00;5.97;;;14.70;77.30;;;;;;5097419;28;20222;-50
2022/11/09 06:10:07;;;;;;;8.30;5.60;;;14.70;78.10;;;;;;5084637;28;20459;-52
2022/11/09 06:12:33;;;;;;;5.13;4.60;;;14.60;78.90;;;;;;5087480;28;20221;-53
2022/11/09 06:14:59;;;;;;;8.87;4.90;;;14.70;78.90;;;;;;5090532;28;20430;-55
2022/11/09 06:17:24;;;;;;;7.70;5.40;;;14.90;78.80;;;;;;5084533;28;20267;-56
2022/11/09 06:19:50;;;;;;;10.00;5.23;;;15.40;78.10;;;;;;5086748;28;20265;-55
2022/11/09 06:22:16;;;;;;;7.07;5.77;;;15.80;77.10;;;;;;5078414;28;20195;-56
2022/11/09 06:24:41;;;;;;;5.63;4.97;;;16.10;75.80;;;;;;5091264;28;20227;-56
2022/11/09 06:27:07;;;;;;;6.63;4.20;;;16.30;74.40;;;;;;5088568;28;20198;-56
2022/11/09 06:29:33;;;;;;;5.47;4.47;;;16.40;73.20;;;;;;5092868;28;20686;-56
2022/11/09 06:31:58;;;;;;;7.00;4.73;;;16.60;72.60;;;;;;5082845;28;20198;-56
2022/11/09 06:34:24;;;;;;;6.63;5.10;;;16.70;71.40;;;;;;5086004;28;20187;-56
2022/11/09 06:36:50;;;;;;;5.00;4.43;;;16.70;70.50;;;;;;5086659;28;20277;-56
2022/11/09 06:39:15;;;;;;;7.20;4.57;;;16.60;69.30;;;;;;5082217;28;20198;-57
2022/11/09 06:41:41;;;;;;;5.90;4.93;;;16.70;69.70;;;;;;5088565;28;20191;-56
2022/11/09 06:44:07;;;;;;;5.50;4.27;;;16.80;69.30;;;;;;5087022;28;20191;-57
2022/11/09 06:46:33;;;;;;;6.40;5.17;;;16.90;69.00;;;;;;5087365;28;20222;-56
2022/11/09 06:48:58;;;;;;;6.40;4.80;;;17.00;68.60;;;;;;5086937;28;20233;-56
2022/11/09 06:51:24;;;;;;;6.23;5.20;;;17.00;68.10;;;;;;5094287;28;20921;-56
2022/11/09 06:53:50;;;;;;;5.70;5.23;;;17.10;67.60;;;;;;5091568;28;20203;-56
2022/11/09 06:56:15;;;;;;;6.90;5.90;;;17.10;67.20;;;;;;5094080;28;20205;-55
2022/11/09 06:58:41;;;;;;;9.27;5.90;;;17.20;66.90;;;;;;5092858;28;20266;-57
2022/11/09 07:01:12;;;;;;;7.17;5.03;;;17.20;66.80;;;;;;5089771;28;20221;-53
2022/11/09 07:03:38;;;;;;;8.63;5.00;;;17.20;66.80;;;;;;5088879;28;20199;-55
2022/11/09 07:06:06;;;;;;;5.57;4.97;;;17.20;66.50;;;;;;5094060;28;20421;-55
2022/11/09 07:08:32;;;;;;;6.93;6.13;;;17.10;66.70;;;;;;5094024;28;20489;-56
2022/11/09 07:11:09;;;;;;;6.60;5.43;;;16.90;66.70;;;;;;5092670;28;20522;-55
2022/11/09 07:13:35;;;;;;;5.83;5.13;;;16.80;67.60;;;;;;5093192;28;20506;-54
2022/11/09 07:16:01;;;;;;;5.90;4.83;;;16.80;68.30;;;;;;5092120;28;20562;-57
2022/11/09 07:18:26;;;;;;;5.60;5.10;;;16.90;67.90;;;;;;5089440;28;20206;-54
2022/11/09 07:20:52;;;;;;;6.73;5.13;;;17.00;67.80;;;;;;5090985;28;20197;-58
2022/11/09 07:23:18;;;;;;;5.67;4.27;;;17.10;67.60;;;;;;5094358;28;20195;-58
2022/11/09 07:25:43;;;;;;;8.43;5.50;;;17.20;68.00;;;;;;5091981;28;20197;-56
2022/11/09 07:28:11;;;;;;;5.43;3.80;;;17.20;67.10;;;;;;5091187;28;20239;-56
2022/11/09 07:30:37;;;;;;;7.50;6.13;;;17.30;67.10;;;;;;5089087;28;20199;-56
2022/11/09 07:33:09;;;;;;;8.10;5.37;;;17.40;66.80;;;;;;5089645;28;20433;-56
2022/11/09 07:35:35;;;;;;;6.50;5.90;;;16.90;68.20;;;;;;5087069;28;20441;-57
2022/11/09 07:38:00;;;;;;;6.07;4.27;;;16.50;70.40;;;;;;5088612;28;20928;-56
2022/11/09 07:40:26;;;;;;;4.77;4.37;;;16.50;73.00;;;;;;5087464;28;20537;-57
2022/11/09 07:42:51;;;;;;;7.77;5.50;;;16.80;71.30;;;;;;5092317;28;20737;-58
2022/11/09 07:45:17;;;;;;;4.97;4.47;;;17.20;69.50;;;;;;5090399;28;20183;-57
2022/11/09 07:47:43;;;;;;;6.70;4.70;;;17.50;68.50;;;;;;5091336;28;20616;-57
2022/11/09 07:50:09;;;;;;;6.80;5.03;;;17.70;68.00;;;;;;5087537;28;20199;-58
2022/11/09 07:52:35;;;;;;;5.10;4.60;;;17.70;67.30;;;;;;5093305;28;20264;-57
2022/11/09 07:55:00;;;;;;;6.20;4.50;;;17.80;67.50;;;;;;5095261;28;20441;-55
2022/11/09 07:57:26;;;;;;;5.27;4.77;;;17.90;66.90;;;;;;5092481;28;20201;-56
2022/11/09 07:59:52;;;;;;;6.33;5.27;;;18.00;66.40;;;;;;5088448;28;20199;-56
2022/11/09 08:02:18;;;;;;;9.60;4.80;;;18.10;66.20;;;;;;5086813;28;20646;-56
2022/11/09 08:04:43;;;;;;;6.80;4.63;;;18.20;65.60;;;;;;5098563;28;20455;-57
2022/11/09 08:07:09;;;;;;;4.33;3.70;;;18.30;65.20;;;;;;5089137;28;20195;-55
2022/11/09 08:09:34;;;;;;;6.60;5.10;;;18.30;65.30;;;;;;5090660;28;20249;-56
2022/11/09 08:12:00;;;;;;;6.37;4.70;;;18.30;65.00;;;;;;5092302;28;20187;-55
2022/11/09 08:14:25;;;;;;;6.70;5.33;;;18.30;64.80;;;;;;5088416;28;20716;-55
2022/11/09 08:16:51;;;;;;;4.47;3.70;;;18.40;64.90;;;;;;5088784;28;20183;-54
2022/11/09 08:19:17;;;;;;;4.97;4.47;;;18.30;65.20;;;;;;5089038;28;20751;-55
2022/11/09 08:21:42;;;;;;;4.60;4.20;;;18.40;65.00;;;;;;5092190;28;20192;-54
2022/11/09 08:24:08;;;;;;;4.27;3.97;;;18.40;64.80;;;;;;5089509;28;20667;-55
2022/11/09 08:26:34;;;;;;;5.40;3.90;;;18.50;64.90;;;;;;5088996;28;20200;-55
2022/11/09 08:28:59;;;;;;;4.50;3.90;;;18.60;64.30;;;;;;5093564;28;20223;-55
2022/11/09 08:31:25;;;;;;;4.00;3.50;;;18.80;63.90;;;;;;5091283;28;20264;-56
2022/11/09 08:33:50;;;;;;;5.20;3.70;;;18.80;63.90;;;;;;5091025;28;20248;-55
2022/11/09 08:36:17;;;;;;;4.90;3.63;;;18.80;63.70;;;;;;5090868;28;20689;-55
2022/11/09 08:38:43;;;;;;;4.23;3.83;;;18.60;64.10;;;;;;5101026;28;20194;-55
2022/11/09 08:41:11;;;;;;;5.80;3.47;;;18.60;64.50;;;;;;5091502;28;20449;-55
2022/11/09 08:43:36;;;;;;;4.10;3.10;;;18.70;63.80;;;;;;5099896;28;20445;-55
2022/11/09 08:46:02;;;;;;;3.50;3.10;;;18.90;63.50;;;;;;5090580;28;20982;-57
2022/11/09 08:48:28;;;;;;;3.87;2.80;;;19.00;63.10;;;;;;5084937;28;21058;-56
2022/11/09 08:50:56;;;;;;;6.30;3.50;;;19.20;62.50;;;;;;5079819;28;20195;-57
2022/11/09 08:53:23;;;;;;;6.17;3.30;;;19.40;62.20;;;;;;5086310;28;20195;-55
2022/11/09 08:55:49;;;;;;;2.97;2.67;;;19.50;62.30;;;;;;5080618;28;20434;-57
2022/11/09 08:58:15;;;;;;;7.17;3.97;;;19.70;61.70;;;;;;5085720;28;20869;-57
2022/11/09 09:00:40;;;;;;;3.70;3.27;;;19.80;61.10;;;;;;5086379;28;20591;-58
2022/11/09 09:03:06;;;;;;;5.80;3.50;;;19.70;60.50;;;;;;5089369;28;20211;-58
2022/11/09 09:05:33;;;;;;;3.20;2.90;;;19.40;62.10;;;;;;5086130;28;20655;-57
2022/11/09 09:07:59;;;;;;;3.30;2.90;;;19.00;62.70;;;;;;5085344;28;20258;-57
2022/11/09 09:10:25;;;;;;;3.63;2.70;;;18.60;64.40;;;;;;5088202;28;20433;-57
2022/11/09 09:12:51;;;;;;;4.07;2.80;;;18.40;66.00;;;;;;5088731;28;20943;-57
2022/11/09 09:15:16;;;;;;;3.00;2.80;;;18.30;66.60;;;;;;5089582;28;20195;-58
2022/11/09 09:17:42;;;;;;;3.30;3.00;;;18.40;66.90;;;;;;5087450;28;20244;-57
2022/11/09 09:20:08;;;;;;;5.57;3.23;;;18.60;66.50;;;;;;5085176;28;20254;-58
2022/11/09 09:22:34;;;;;;;3.20;2.40;;;18.80;66.20;;;;;;5086794;28;20567;-58
2022/11/09 09:24:59;;;;;;;2.70;2.50;;;18.80;65.90;;;;;;5087931;28;20262;-57
2022/11/09 09:27:25;;;;;;;2.60;2.20;;;18.60;65.70;;;;;;5080675;28;20245;-58
2022/11/09 09:29:51;;;;;;;3.50;2.40;;;18.70;66.20;;;;;;5090029;28;20587;-57
2022/11/09 09:32:17;;;;;;;2.73;2.47;;;18.70;66.30;;;;;;5081650;28;20470;-58
2022/11/09 09:34:42;;;;;;;23.93;14.13;;;18.70;66.60;;;;;;5083681;28;20256;-56
2022/11/09 09:37:08;;;;;;;10.00;6.53;;;19.00;65.80;;;;;;5081640;28;20194;-58
2022/11/09 09:39:33;;;;;;;3.40;3.10;;;19.20;65.10;;;;;;5085538;28;20637;-57
2022/11/09 09:42:03;;;;;;;3.60;2.80;;;19.30;64.60;;;;;;5090760;28;20249;-58
2022/11/09 09:44:32;;;;;;;4.50;2.80;;;19.40;64.50;;;;;;5079248;28;20192;-59
2022/11/09 09:47:36;;;;;;;3.07;2.57;;;19.40;63.90;;;;;;5087394;28;20442;-58
2022/11/09 09:50:11;;;;;;;3.00;2.70;;;19.50;64.20;;;;;;5085086;28;20935;-57
2022/11/09 09:53:05;;;;;;;3.10;2.25;;;19.70;64.10;;;;;;5083389;28;20324;-58
2022/11/09 09:55:37;;;;;;;2.60;2.33;;;19.90;63.30;;;;;;5083115;28;20187;-58
2022/11/09 09:58:21;;;;;;;2.47;2.27;;;19.90;63.00;;;;;;5088995;28;21413;-58
2022/11/09 10:01:12;;;;;;;1.67;1.57;;;19.70;62.80;;;;;;5083536;28;20457;-60
2022/11/09 10:03:38;;;;;;;3.77;2.27;;;19.40;62.90;;;;;;5099516;28;20492;-58
2022/11/09 10:06:12;;;;;;;2.87;2.63;;;19.00;64.80;;;;;;5092679;28;20858;-58
2022/11/09 10:08:46;;;;;;;2.10;2.00;;;18.80;65.70;;;;;;5087247;28;20276;-58
2022/11/09 10:11:20;;;;;;;2.90;2.67;;;18.90;66.70;;;;;;5099794;28;20455;-58
2022/11/09 10:14:05;;;;;;;2.97;2.13;;;19.00;65.10;;;;;;5086179;28;20444;-58
2022/11/09 10:16:50;;;;;;;2.30;1.97;;;18.70;65.60;;;;;;5085337;28;20453;-58
2022/11/09 10:19:55;;;;;;;1.97;1.83;;;18.00;67.30;;;;;;5084289;28;20437;-58
2022/11/09 10:22:36;;;;;;;2.30;2.10;;;18.30;68.20;;;;;;5081923;28;20509;-58
2022/11/09 10:25:25;;;;;;;3.13;2.30;;;18.50;66.70;;;;;;5088271;28;20802;-58
2022/11/09 10:28:05;;;;;;;2.47;2.27;;;18.80;66.60;;;;;;5107902;27;20480;-58
2022/11/09 10:30:32;;;;;;;3.73;2.30;;;19.00;65.60;;;;;;5089902;28;20456;-58
2022/11/09 10:33:09;;;;;;;2.13;1.93;;;19.20;65.80;;;;;;5088117;28;20978;-54
2022/11/09 10:35:48;;;;;;;3.77;2.00;;;19.40;64.80;;;;;;5085515;28;20838;-54
2022/11/09 10:38:37;;;;;;;4.27;2.70;;;19.60;64.10;;;;;;5084299;28;20951;-56
2022/11/09 10:41:09;;;;;;;2.80;1.90;;;19.40;64.00;;;;;;5087389;28;20457;-54
2022/11/09 10:43:35;;;;;;;1.60;1.50;;;18.90;67.30;;;;;;5085150;28;20818;-54
2022/11/09 10:46:04;;;;;;;2.53;2.10;;;18.60;68.40;;;;;;5089995;28;20437;-53
2022/11/09 10:48:33;;;;;;;2.10;1.90;;;18.70;68.50;;;;;;5093051;28;20254;-55
2022/11/09 10:50:58;;;;;;;1.80;1.70;;;18.90;68.00;;;;;;5088665;28;20526;-54
2022/11/09 10:53:29;;;;;;;1.87;1.73;;;18.80;67.40;;;;;;5087960;28;20724;-54
2022/11/09 10:56:05;;;;;;;2.83;1.10;;;18.50;67.50;;;;;;5085604;28;20195;-55
2022/11/09 10:58:44;;;;;;;1.27;1.27;;;18.30;67.80;;;;;;5087664;28;20812;-54
2022/11/09 11:01:14;;;;;;;1.83;1.40;;;18.50;68.70;;;;;;5084786;28;20816;-55
2022/11/09 11:03:41;;;;;;;2.00;1.87;;;18.50;68.90;;;;;;5091551;28;20445;-51
2022/11/09 11:06:17;;;;;;;3.40;1.20;;;18.80;67.80;;;;;;5091408;28;20465;-54
2022/11/09 11:08:46;;;;;;;1.10;1.00;;;19.00;67.40;;;;;;5091550;28;20493;-56
2022/11/09 11:11:20;;;;;;;1.57;1.40;;;19.30;66.80;;;;;;5089609;28;20463;-53
2022/11/09 11:13:48;;;;;;;2.40;1.40;;;19.40;64.90;;;;;;5086509;28;20448;-56
2022/11/09 11:16:22;;;;;;;1.40;1.30;;;19.50;65.00;;;;;;5088337;28;20453;-56
2022/11/09 11:18:48;;;;;;;1.50;1.40;;;19.50;64.70;;;;;;5090879;28;20439;-56
2022/11/09 11:21:16;;;;;;;1.80;1.63;;;19.60;65.10;;;;;;5093094;28;20433;-55
2022/11/09 11:23:42;;;;;;;7.23;2.00;;;19.50;65.10;;;;;;5089211;28;20231;-52
2022/11/09 11:26:22;;;;;;;2.20;1.50;;;19.70;65.70;;;;;;5080512;28;20839;-55
2022/11/09 11:29:00;;;;;;;1.70;1.30;;;20.00;64.50;;;;;;5087157;28;20223;-56
2022/11/09 11:31:26;;;;;;;1.90;1.47;;;20.10;64.10;;;;;;5090524;28;20437;-56
2022/11/09 11:33:51;;;;;;;1.33;1.00;;;20.20;64.80;;;;;;5092018;28;21304;-56
2022/11/09 11:36:41;;;;;;;1.70;1.60;;;20.20;63.80;;;;;;5092323;28;20274;-56
2022/11/09 11:39:52;;;;;;;1.53;1.43;;;20.30;63.50;;;;;;5090587;28;20195;-53
2022/11/09 11:42:32;;;;;;;2.50;1.90;;;20.40;63.60;;;;;;5065651;28;20495;-55
2022/11/09 11:45:32;;;;;;;2.10;1.60;;;20.40;63.70;;;;;;5087899;28;20861;-53
2022/11/09 11:48:16;;;;;;;2.97;1.60;;;20.20;64.10;;;;;;5088099;28;20493;-54
2022/11/09 11:50:45;;;;;;;1.83;1.40;;;20.10;64.00;;;;;;5091188;28;20457;-53
2022/11/09 11:53:35;;;;;;;1.50;1.20;;;20.20;64.10;;;;;;5090513;28;20529;-54
2022/11/09 11:56:23;;;;;;;1.80;1.57;;;20.20;64.00;;;;;;5093112;28;20520;-51
2022/11/09 11:58:58;;;;;;;2.43;1.77;;;20.20;63.50;;;;;;5085726;28;20449;-52
2022/11/09 12:01:46;;;;;;;1.77;1.67;;;20.10;63.40;;;;;;5087392;28;20509;-54
2022/11/09 12:04:50;;;;;;;2.57;2.37;;;20.10;63.40;;;;;;5081379;28;20449;-53
2022/11/09 12:07:22;;;;;;;2.20;1.73;;;20.00;63.90;;;;;;5066507;28;20980;-57
2022/11/09 12:09:54;;;;;;;1.60;1.50;;;19.80;64.10;;;;;;5086647;28;20453;-57
2022/11/09 12:12:43;;;;;;;1.60;1.50;;;20.10;64.30;;;;;;5090785;28;20857;-57
2022/11/09 12:15:29;;;;;;;4.07;3.60;;;20.20;64.20;;;;;;5086199;28;20445;-57
2022/11/09 12:18:32;;;;;;;4.67;3.67;;;20.30;64.30;;;;;;5087043;28;20817;-57
2022/11/09 12:21:21;;;;;;;4.00;2.87;;;20.40;64.00;;;;;;5087928;28;20441;-57
2022/11/09 12:24:05;;;;;;;2.57;2.37;;;20.40;63.90;;;;;;5088799;28;20524;-57
2022/11/09 12:26:44;;;;;;;2.70;2.17;;;20.40;64.00;;;;;;5081901;28;20468;-57
2022/11/09 12:29:27;;;;;;;3.10;2.07;;;20.40;63.80;;;;;;5089967;28;20482;-57
2022/11/09 12:32:24;;;;;;;2.67;2.00;;;20.40;63.90;;;;;;5085510;28;20449;-58
2022/11/09 12:35:12;;;;;;;2.70;2.00;;;20.30;64.50;;;;;;5077397;28;20936;-57
2022/11/09 12:37:50;;;;;;;2.50;2.00;;;20.30;64.70;;;;;;5091636;28;20451;-57
2022/11/09 12:40:36;;;;;;;2.07;1.90;;;20.40;64.70;;;;;;5089002;28;20444;-57
2022/11/09 12:43:01;;;;;;;2.33;2.13;;;20.40;64.90;;;;;;5078120;28;20437;-57
2022/11/09 12:45:33;;;;;;;2.77;2.30;;;20.40;65.30;;;;;;5088834;28;20448;-58
2022/11/09 12:48:21;;;;;;;1.70;1.60;;;20.40;65.50;;;;;;5088860;28;20258;-58
2022/11/09 12:50:48;;;;;;;2.40;2.20;;;20.40;65.00;;;;;;5074738;28;20445;-57
2022/11/09 12:53:14;;;;;;;2.33;2.13;;;20.50;64.70;;;;;;5089084;28;20473;-58
2022/11/09 12:55:45;;;;;;;2.33;2.03;;;20.50;64.10;;;;;;5088242;28;20472;-57
2022/11/09 12:58:29;;;;;;;3.27;2.70;;;20.50;64.10;;;;;;5090358;28;20194;-57
2022/11/09 13:00:59;;;;;;;2.13;1.93;;;20.50;64.40;;;;;;5091134;28;20543;-57
2022/11/09 13:03:31;;;;;;;2.30;2.10;;;20.50;64.10;;;;;;5085917;28;20429;-57